Time;durP1;ratioP1;P1;durP2;ratioP2;P2;SDS_P1;SDS_P2;PMS_P1;PMS_P2;Temp;Humidity;BMP_temperature;BMP_pressure;BME280_temperature;BME280_humidity;BME280_pressure;Samples;Min_cycle;Max_cycle;Signal;HPM_P1;HPM_P2
2023/04/22 00:00:17;;;;;;;5.18;4.35;;;;;;;-144.85;100.00;61331.59;5040471;28;32993;-79
2023/04/22 00:02:45;;;;;;;5.72;4.47;;;;;;;-144.85;100.00;61331.59;5055682;28;33026;-81
2023/04/22 00:05:13;;;;;;;5.85;4.50;;;;;;;-144.85;100.00;61331.59;5040730;28;33209;-79
2023/04/22 00:07:45;;;;;;;5.93;4.55;;;;;;;-144.85;100.00;61331.59;5039238;28;32858;-79
2023/04/22 00:10:13;;;;;;;6.55;4.80;;;;;;;-144.85;100.00;61331.59;5041559;28;31234;-79
2023/04/22 00:12:40;;;;;;;7.85;5.03;;;;;;;-144.85;100.00;61331.59;5043771;28;33813;-79
2023/04/22 00:15:08;;;;;;;7.35;4.35;;;;;;;-144.85;100.00;61331.59;5041083;28;32357;-79
2023/04/22 00:17:35;;;;;;;7.43;4.68;;;;;;;-144.85;100.00;61331.59;5043337;28;32098;-79
2023/04/22 00:20:03;;;;;;;6.63;4.90;;;;;;;-144.85;100.00;61331.59;5040527;28;31978;-79
2023/04/22 00:22:30;;;;;;;6.35;4.85;;;;;;;-144.85;100.00;61331.59;5041212;28;33666;-79
2023/04/22 00:24:57;;;;;;;7.32;5.15;;;;;;;-144.85;100.00;61331.59;5043193;28;32611;-79
2023/04/22 00:27:25;;;;;;;7.53;4.82;;;;;;;-144.85;100.00;61331.59;5044114;28;33958;-79
2023/04/22 00:29:52;;;;;;;7.10;4.72;;;;;;;-144.85;100.00;61331.59;5042886;28;31712;-79
2023/04/22 00:32:21;;;;;;;7.68;5.25;;;;;;;-144.85;100.00;61331.59;5026100;28;31535;-78
2023/04/22 00:34:49;;;;;;;9.07;5.18;;;;;;;-144.85;100.00;61331.59;5041887;28;33809;-78
2023/04/22 00:37:16;;;;;;;6.28;5.15;;;;;;;-144.85;100.00;61331.59;5046397;28;33196;-80
2023/04/22 00:39:43;;;;;;;7.63;5.38;;;;;;;-144.85;100.00;61331.59;5058545;28;33141;-79
2023/04/22 00:42:12;;;;;;;6.70;5.00;;;;;;;-144.85;100.00;61331.59;5041307;28;33948;-79
2023/04/22 00:44:40;;;;;;;6.82;4.95;;;;;;;-144.85;100.00;61331.59;5040162;28;34683;-79
2023/04/22 00:47:11;;;;;;;6.85;5.35;;;;;;;-144.85;100.00;61331.59;5042593;28;33187;-80
2023/04/22 00:49:39;;;;;;;6.85;4.95;;;;;;;-144.85;100.00;61331.59;5040088;28;32714;-79
2023/04/22 00:52:07;;;;;;;6.45;4.85;;;;;;;-144.85;100.00;61331.59;5042575;28;34196;-79
2023/04/22 00:54:35;;;;;;;6.90;5.57;;;;;;;-144.85;100.00;61331.59;5043013;28;33758;-78
2023/04/22 00:57:04;;;;;;;8.55;5.35;;;;;;;-144.85;100.00;61331.59;5024361;28;32138;-79
2023/04/22 00:59:32;;;;;;;6.82;4.93;;;;;;;-144.85;100.00;61331.59;5036254;28;33124;-79
2023/04/22 01:02:00;;;;;;;6.95;4.93;;;;;;;-144.85;100.00;61331.59;5051006;28;33746;-78
2023/04/22 01:04:28;;;;;;;7.90;5.40;;;;;;;-144.85;100.00;61331.59;5036988;28;31296;-79
2023/04/22 01:06:56;;;;;;;8.20;4.95;;;;;;;-144.85;100.00;61331.59;5034880;28;32463;-79
2023/04/22 01:09:24;;;;;;;7.82;4.80;;;;;;;-144.85;100.00;61331.59;5034978;28;30668;-79
2023/04/22 01:11:51;;;;;;;6.63;5.20;;;;;;;-144.85;100.00;61331.59;5037663;28;31833;-80
2023/04/22 01:14:18;;;;;;;9.43;5.40;;;;;;;-144.85;100.00;61331.59;5036442;28;32293;-79
2023/04/22 01:16:47;;;;;;;7.78;4.95;;;;;;;-144.85;100.00;61331.59;5037686;28;31837;-79
2023/04/22 01:19:15;;;;;;;6.20;4.68;;;;;;;-144.85;100.00;61331.59;5042760;28;31648;-78
2023/04/22 01:21:44;;;;;;;9.38;5.75;;;;;;;-144.85;100.00;61331.59;5035249;28;33352;-79
2023/04/22 01:24:11;;;;;;;6.88;5.13;;;;;;;-144.85;100.00;61331.59;5037477;28;33219;-79
2023/04/22 01:26:38;;;;;;;6.65;5.38;;;;;;;-144.85;100.00;61331.59;5035267;28;32063;-78
2023/04/22 01:29:06;;;;;;;7.53;5.30;;;;;;;-144.85;100.00;61331.59;5040091;28;30957;-79
2023/04/22 01:31:33;;;;;;;8.15;5.63;;;;;;;-144.85;100.00;61331.59;5038512;28;33237;-79
2023/04/22 01:34:01;;;;;;;7.97;5.70;;;;;;;-144.85;100.00;61331.59;5021188;28;31874;-79
2023/04/22 01:36:28;;;;;;;6.82;5.57;;;;;;;-144.85;100.00;61331.59;5039778;28;32868;-79
2023/04/22 01:38:56;;;;;;;6.75;5.20;;;;;;;-144.85;100.00;61331.59;5036402;28;32924;-79
2023/04/22 01:41:26;;;;;;;9.82;5.97;;;;;;;-144.85;100.00;61331.59;5038719;28;32802;-79
2023/04/22 01:43:54;;;;;;;6.55;4.90;;;;;;;-144.85;100.00;61331.59;5038238;28;32613;-80
2023/04/22 01:46:22;;;;;;;7.03;5.50;;;;;;;-144.85;100.00;61331.59;5039903;28;32594;-79
2023/04/22 01:48:50;;;;;;;8.18;5.35;;;;;;;-144.85;100.00;61331.59;5039269;28;32006;-79
2023/04/22 01:51:22;;;;;;;7.75;5.40;;;;;;;-144.85;100.00;61331.59;5026928;28;31782;-79
2023/04/22 01:53:49;;;;;;;7.70;5.90;;;;;;;-144.85;100.00;61331.59;5038421;28;32444;-79
2023/04/22 01:56:17;;;;;;;7.70;5.82;;;;;;;-144.85;100.00;61331.59;5042293;28;33113;-79
2023/04/22 01:58:44;;;;;;;7.78;5.47;;;;;;;-144.85;100.00;61331.59;5042012;28;31404;-79
2023/04/22 02:01:12;;;;;;;7.40;5.32;;;;;;;-144.85;100.00;61331.59;5038719;28;32699;-79
2023/04/22 02:03:39;;;;;;;7.97;5.28;;;;;;;-144.85;100.00;61331.59;5042853;28;33749;-79
2023/04/22 02:06:07;;;;;;;8.02;5.65;;;;;;;-144.85;100.00;61331.59;5024295;28;31600;-79
2023/04/22 02:08:34;;;;;;;7.80;6.03;;;;;;;-144.85;100.00;61331.59;5037729;28;32238;-79
2023/04/22 02:11:02;;;;;;;8.27;5.40;;;;;;;-144.85;100.00;61331.59;5035225;28;31640;-80
2023/04/22 02:13:39;;;;;;;8.45;5.65;;;;;;;-144.85;100.00;61331.59;5037615;28;31366;-79
2023/04/22 02:16:07;;;;;;;7.85;5.72;;;;;;;-144.85;100.00;61331.59;5036571;28;32542;-79
2023/04/22 02:18:34;;;;;;;9.50;6.28;;;;;;;-144.85;100.00;61331.59;5042064;28;33188;-79
2023/04/22 02:21:01;;;;;;;9.10;6.05;;;;;;;-144.85;100.00;61331.59;5043644;28;33620;-79
2023/04/22 02:23:29;;;;;;;8.82;6.22;;;;;;;-144.85;100.00;61331.59;5041593;28;32390;-79
2023/04/22 02:25:56;;;;;;;7.95;6.38;;;;;;;-144.85;100.00;61331.59;5042452;28;32910;-79
2023/04/22 02:28:23;;;;;;;8.02;6.15;;;;;;;-144.85;100.00;61331.59;5043138;28;32903;-82
2023/04/22 02:30:50;;;;;;;10.23;6.75;;;;;;;-144.85;100.00;61331.59;5043932;28;32684;-79
2023/04/22 02:33:17;;;;;;;9.07;6.68;;;;;;;-144.85;100.00;61331.59;5044471;28;32324;-78
2023/04/22 02:35:45;;;;;;;13.55;6.90;;;;;;;-144.85;100.00;61331.59;5043343;28;33167;-79
2023/04/22 02:38:17;;;;;;;10.77;7.43;;;;;;;-144.85;100.00;61331.59;5038486;28;32034;-79
2023/04/22 02:40:45;;;;;;;10.68;6.95;;;;;;;-144.85;100.00;61331.59;5040483;28;31037;-78
2023/04/22 02:43:13;;;;;;;9.30;7.38;;;;;;;-144.85;100.00;61331.59;5039207;28;33603;-79
2023/04/22 02:45:40;;;;;;;12.05;7.05;;;;;;;-144.85;100.00;61331.59;5040220;28;33072;-80
2023/04/22 02:48:07;;;;;;;15.40;8.23;;;;;;;-144.85;100.00;61331.59;5040719;28;31384;-80
2023/04/22 02:50:35;;;;;;;12.90;7.93;;;;;;;-144.85;100.00;61331.59;5041322;28;31934;-79
2023/04/22 02:53:02;;;;;;;8.68;7.25;;;;;;;-144.85;100.00;61331.59;5055461;28;32305;-79
2023/04/22 02:55:30;;;;;;;10.95;7.90;;;;;;;-144.85;100.00;61331.59;5042029;28;32114;-79
2023/04/22 02:57:57;;;;;;;10.75;7.78;;;;;;;-144.85;100.00;61331.59;5043263;28;32102;-79
2023/04/22 03:00:24;;;;;;;9.98;7.97;;;;;;;-144.85;100.00;61331.59;5042211;28;33431;-79
2023/04/22 03:02:52;;;;;;;12.95;8.32;;;;;;;-144.85;100.00;61331.59;5030642;28;32364;-79
2023/04/22 03:05:24;;;;;;;11.13;8.25;;;;;;;-144.85;100.00;61331.59;5046710;28;32134;-79
2023/04/22 03:07:52;;;;;;;11.93;9.23;;;;;;;-144.85;100.00;61331.59;5042666;28;29571;-79
2023/04/22 03:10:20;;;;;;;13.80;9.55;;;;;;;-144.85;100.00;61331.59;5041352;28;31852;-79
2023/04/22 03:12:47;;;;;;;13.75;9.30;;;;;;;-144.85;100.00;61331.59;5041212;28;32564;-79
2023/04/22 03:15:15;;;;;;;12.63;9.50;;;;;;;-144.85;100.00;61331.59;5041601;28;31901;-79
2023/04/22 03:17:47;;;;;;;15.48;10.02;;;;;;;-144.85;100.00;61331.59;5050897;28;31666;-79
2023/04/22 03:20:15;;;;;;;16.85;10.23;;;;;;;-144.85;100.00;61331.59;5039620;28;32733;-79
2023/04/22 03:22:43;;;;;;;14.73;9.85;;;;;;;-144.85;100.00;61331.59;5041658;28;34080;-79
2023/04/22 03:25:11;;;;;;;13.43;9.38;;;;;;;-144.85;100.00;61331.59;5041063;28;33015;-79
2023/04/22 03:27:39;;;;;;;14.98;9.48;;;;;;;-144.85;100.00;61331.59;5040696;28;30919;-79
2023/04/22 03:30:07;;;;;;;15.13;10.57;;;;;;;-144.85;100.00;61331.59;5037681;28;33131;-79
2023/04/22 03:32:34;;;;;;;16.15;10.70;;;;;;;-144.85;100.00;61331.59;5041466;28;31456;-79
2023/04/22 03:35:22;;;;;;;16.35;10.20;;;;;;;-144.85;100.00;61331.59;5040860;28;32298;-79
2023/04/22 03:37:51;;;;;;;14.60;10.65;;;;;;;-144.85;100.00;61331.59;5041858;28;31922;-79
2023/04/22 03:40:24;;;;;;;16.25;11.48;;;;;;;-144.85;100.00;61331.59;5026938;28;31663;-79
2023/04/22 03:42:52;;;;;;;18.33;11.07;;;;;;;-144.85;100.00;61331.59;5052241;28;33340;-79
2023/04/22 03:45:21;;;;;;;16.85;11.32;;;;;;;-144.85;100.00;61331.59;5036071;28;31827;-79
2023/04/22 03:48:04;;;;;;;16.65;11.32;;;;;;;-144.85;100.00;61331.59;5031168;28;31762;-80
2023/04/22 03:50:38;;;;;;;17.80;11.48;;;;;;;-144.85;100.00;61331.59;5023217;28;32538;-79
2023/04/22 03:53:06;;;;;;;15.23;11.35;;;;;;;-144.85;100.00;61331.59;5043167;28;32847;-79
2023/04/22 03:55:34;;;;;;;16.30;11.65;;;;;;;-144.85;100.00;61331.59;5054889;28;32229;-80
2023/04/22 03:58:01;;;;;;;15.82;12.27;;;;;;;-144.85;100.00;61331.59;5041596;28;33246;-79
2023/04/22 04:00:29;;;;;;;16.42;11.95;;;;;;;-144.85;100.00;61331.59;5040250;28;33760;-79
2023/04/22 04:03:07;;;;;;;17.63;12.40;;;;;;;-144.85;100.00;61331.59;5042128;28;32225;-79
2023/04/22 04:05:35;;;;;;;18.00;12.63;;;;;;;-144.85;100.00;61331.59;5041274;28;31148;-79
2023/04/22 04:08:02;;;;;;;17.40;12.18;;;;;;;-144.85;100.00;61331.59;5042533;28;33241;-79
2023/04/22 04:10:31;;;;;;;19.42;12.45;;;;;;;-144.85;100.00;61331.59;5017107;28;34523;-78
2023/04/22 04:13:00;;;;;;;18.33;12.10;;;;;;;-144.85;100.00;61331.59;5023816;28;32452;-78
2023/04/22 04:15:31;;;;;;;18.60;12.70;;;;;;;-144.85;100.00;61331.59;5041271;28;32008;-79
2023/04/22 04:18:00;;;;;;;22.33;14.43;;;;;;;-144.85;100.00;61331.59;5042091;28;33220;-79
2023/04/22 04:20:30;;;;;;;20.00;14.07;;;;;;;-144.85;100.00;61331.59;5039360;28;34283;-79
2023/04/22 04:22:58;;;;;;;24.75;13.82;;;;;;;-144.85;100.00;61331.59;5039133;28;32753;-79
2023/04/22 04:25:26;;;;;;;20.25;14.20;;;;;;;-144.85;100.00;61331.59;5038801;28;31071;-79
2023/04/22 04:27:54;;;;;;;20.55;13.88;;;;;;;-144.85;100.00;61331.59;5023193;28;30589;-79
2023/04/22 04:30:21;;;;;;;23.70;15.55;;;;;;;-144.85;100.00;61331.59;5038572;28;32597;-79
2023/04/22 04:32:53;;;;;;;22.83;15.05;;;;;;;-144.85;100.00;61331.59;5023291;28;33378;-79
2023/04/22 04:35:22;;;;;;;22.05;15.45;;;;;;;-144.85;100.00;61331.59;5033268;28;32125;-79
2023/04/22 04:37:54;;;;;;;25.05;15.52;;;;;;;-144.85;100.00;61331.59;5037232;28;31880;-79
2023/04/22 04:40:22;;;;;;;22.88;15.15;;;;;;;-144.85;100.00;61331.59;5038321;28;32812;-79
2023/04/22 04:43:07;;;;;;;23.73;15.75;;;;;;;-144.85;100.00;61331.59;5040640;28;32417;-79
2023/04/22 04:45:45;;;;;;;23.08;15.30;;;;;;;-144.85;100.00;61331.59;5031624;28;33028;-78
2023/04/22 04:48:18;;;;;;;24.88;16.52;;;;;;;-144.85;100.00;61331.59;5040452;28;31648;-78
2023/04/22 04:50:52;;;;;;;26.88;16.40;;;;;;;-144.85;100.00;61331.59;5039703;28;31969;-80
2023/04/22 04:53:21;;;;;;;26.95;15.98;;;;;;;-144.85;100.00;61331.59;5040964;28;32812;-79
2023/04/22 04:55:50;;;;;;;29.33;16.98;;;;;;;-144.85;100.00;61331.59;5042471;28;20046;-79
2023/04/22 04:58:23;;;;;;;26.45;16.25;;;;;;;-144.85;100.00;61331.59;5040242;28;31478;-79
2023/04/22 05:01:05;;;;;;;26.23;16.48;;;;;;;-144.85;100.00;61331.59;5040580;28;33450;-80
2023/04/22 05:03:34;;;;;;;25.52;17.40;;;;;;;-144.85;100.00;61331.59;5023313;28;32084;-80
2023/04/22 05:06:04;;;;;;;20.70;11.30;;;;;;;-144.85;100.00;61331.59;5024616;28;32105;-79
2023/04/22 05:08:32;;;;;;;28.60;15.55;;;;;;;-144.85;100.00;61331.59;5039708;28;32136;-79
2023/04/22 05:11:05;;;;;;;24.70;15.98;;;;;;;-144.85;100.00;61331.59;5041265;28;32584;-79
2023/04/22 05:13:33;;;;;;;27.60;16.55;;;;;;;-144.85;100.00;61331.59;5040493;28;31444;-78
2023/04/22 05:16:00;;;;;;;26.25;17.10;;;;;;;-144.85;100.00;61331.59;5039711;28;31908;-80
2023/04/22 05:18:30;;;;;;;30.63;18.75;;;;;;;-144.85;100.00;61331.59;5038949;28;31922;-78
2023/04/22 05:21:02;;;;;;;28.30;17.92;;;;;;;-144.85;100.00;61331.59;5040063;28;32730;-79
2023/04/22 05:23:31;;;;;;;28.15;18.75;;;;;;;-144.85;100.00;61331.59;5023225;28;32344;-79
2023/04/22 05:26:00;;;;;;;27.40;18.15;;;;;;;-144.85;100.00;61331.59;5040380;28;31684;-79
2023/04/22 05:28:29;;;;;;;29.52;18.83;;;;;;;-144.85;100.00;61331.59;5039047;28;31720;-78
2023/04/22 05:30:57;;;;;;;28.70;19.10;;;;;;;-144.85;100.00;61331.59;5038611;28;34211;-79
2023/04/22 05:33:27;;;;;;;31.02;18.75;;;;;;;-144.85;100.00;61331.59;5042385;28;31388;-80
2023/04/22 05:35:55;;;;;;;31.17;19.38;;;;;;;-144.85;100.00;61331.59;5035769;28;31736;-79
2023/04/22 05:38:23;;;;;;;29.08;19.40;;;;;;;-144.85;100.00;61331.59;5031119;28;31480;-79
2023/04/22 05:40:52;;;;;;;35.72;20.95;;;;;;;-144.85;100.00;61331.59;5037072;28;32336;-81
2023/04/22 05:43:20;;;;;;;30.88;19.63;;;;;;;-144.85;100.00;61331.59;5039601;28;32402;-80
2023/04/22 05:45:55;;;;;;;33.05;20.65;;;;;;;-144.85;100.00;61331.59;5040183;28;33748;-79
2023/04/22 05:48:22;;;;;;;23.40;12.48;;;;;;;-144.85;100.00;61331.59;5040014;28;31822;-80
2023/04/22 05:50:57;;;;;;;29.17;18.17;;;;;;;-144.85;100.00;61331.59;5039525;28;33954;-83
2023/04/22 05:53:27;;;;;;;27.20;18.17;;;;;;;-144.85;100.00;61331.59;5041606;28;32432;-82
2023/04/22 05:55:55;;;;;;;27.73;17.88;;;;;;;-144.85;100.00;61331.59;5040067;28;31966;-82
2023/04/22 05:58:23;;;;;;;27.95;18.95;;;;;;;-144.85;100.00;61331.59;5042190;28;31344;-83
2023/04/22 06:00:56;;;;;;;30.48;18.08;;;;;;;-144.85;100.00;61331.59;5018756;28;32365;-80
2023/04/22 06:03:42;;;;;;;30.17;18.83;;;;;;;-144.85;100.00;61331.59;5046476;28;34078;-84
2023/04/22 06:06:11;;;;;;;29.63;19.08;;;;;;;-144.85;100.00;61331.59;5034031;28;32154;-84
2023/04/22 06:08:39;;;;;;;29.83;19.15;;;;;;;-144.85;100.00;61331.59;5027303;28;31405;-84
2023/04/22 06:11:06;;;;;;;31.73;20.30;;;;;;;-144.85;100.00;61331.59;5041714;28;33727;-84
2023/04/22 06:13:36;;;;;;;33.63;20.33;;;;;;;-144.85;100.00;61331.59;5046171;28;31968;-82
2023/04/22 06:16:05;;;;;;;35.85;21.23;;;;;;;-144.85;100.00;61331.59;5040291;28;31998;-84
2023/04/22 06:18:35;;;;;;;34.40;20.65;;;;;;;-144.85;100.00;61331.59;5041623;28;32621;-82
2023/04/22 06:21:05;;;;;;;29.98;19.80;;;;;;;-144.85;100.00;61331.59;5025372;28;32611;-82
2023/04/22 06:23:36;;;;;;;35.33;21.27;;;;;;;-144.85;100.00;61331.59;5025430;28;32009;-86
2023/04/22 06:26:04;;;;;;;31.65;20.85;;;;;;;-144.85;100.00;61331.59;5039918;28;32008;-87
2023/04/22 06:28:32;;;;;;;30.25;15.88;;;;;;;-144.85;100.00;61331.59;5039506;28;31839;-87
2023/04/22 06:31:04;;;;;;;33.38;19.63;;;;;;;-144.85;100.00;61331.59;5023364;28;31702;-85
2023/04/22 06:33:31;;;;;;;34.25;19.05;;;;;;;-144.85;100.00;61331.59;5037322;28;32639;-85
2023/04/22 06:36:00;;;;;;;30.50;18.88;;;;;;;-144.85;100.00;61331.59;5032717;28;31199;-84
2023/04/22 06:38:30;;;;;;;32.55;19.50;;;;;;;-144.85;100.00;61331.59;5011052;28;30803;-86
2023/04/22 06:41:25;;;;;;;31.13;18.55;;;;;;;-144.85;100.00;61331.59;5028607;28;32357;-84
2023/04/22 06:43:57;;;;;;;31.60;19.30;;;;;;;-144.85;100.00;61331.59;5018786;28;33452;-85
2023/04/22 06:46:33;;;;;;;33.63;19.73;;;;;;;-144.85;100.00;61331.59;5024090;28;33479;-85
2023/04/22 06:49:22;;;;;;;31.35;19.52;;;;;;;-144.85;100.00;61331.59;5004163;28;30596;-85
2023/04/22 06:52:25;;;;;;;28.20;17.65;;;;;;;-144.85;100.00;61331.59;5011517;28;32766;-83
2023/04/22 06:54:56;;;;;;;32.45;18.50;;;;;;;-144.85;100.00;61331.59;5001347;28;32552;-84
2023/04/22 06:57:23;;;;;;;28.33;17.80;;;;;;;-144.85;100.00;61331.59;4999676;28;31505;-86
2023/04/22 06:59:50;;;;;;;28.92;18.02;;;;;;;-144.85;100.00;61331.59;5001520;28;32252;-86
2023/04/22 07:02:18;;;;;;;25.30;16.63;;;;;;;-144.85;100.00;61331.59;5014676;28;32887;-85
2023/04/22 07:04:45;;;;;;;25.52;17.02;;;;;;;-144.85;100.00;61331.59;5016842;28;32922;-83
2023/04/22 07:07:13;;;;;;;23.50;16.35;;;;;;;-144.85;100.00;61331.59;5018768;28;32554;-84
2023/04/22 07:09:40;;;;;;;24.88;15.93;;;;;;;-144.85;100.00;61331.59;5003863;28;32863;-83
2023/04/22 07:12:08;;;;;;;25.38;16.67;;;;;;;-144.85;100.00;61331.59;5018527;28;34108;-85
2023/04/22 07:14:36;;;;;;;27.77;15.88;;;;;;;-144.85;100.00;61331.59;5002861;28;34024;-85
2023/04/22 07:17:03;;;;;;;18.33;11.25;;;;;;;-144.85;100.00;61331.59;5005021;28;32222;-84
2023/04/22 07:19:30;;;;;;;22.80;15.40;;;;;;;-144.85;100.00;61331.59;5003375;28;32184;-86
2023/04/22 07:22:02;;;;;;;20.60;14.80;;;;;;;-144.85;100.00;61331.59;5002837;28;34014;-84
2023/04/22 07:24:29;;;;;;;19.90;12.38;;;;;;;-144.85;100.00;61331.59;5019178;28;32716;-84
2023/04/22 07:26:57;;;;;;;22.08;13.90;;;;;;;-144.85;100.00;61331.59;5013808;28;32303;-85
2023/04/22 07:29:24;;;;;;;24.02;14.38;;;;;;;-144.85;100.00;61331.59;5020024;28;33036;-84
2023/04/22 07:31:51;;;;;;;18.50;13.10;;;;;;;-144.85;100.00;61331.59;5001950;28;33686;-83
2023/04/22 07:34:19;;;;;;;18.80;13.52;;;;;;;-144.85;100.00;61331.59;5019108;28;33735;-83
2023/04/22 07:36:46;;;;;;;17.13;13.23;;;;;;;-144.85;100.00;61331.59;5020272;28;32004;-85
2023/04/22 07:39:13;;;;;;;15.40;12.02;;;;;;;-144.85;100.00;61331.59;5018975;28;31302;-85
2023/04/22 07:41:41;;;;;;;19.05;12.93;;;;;;;-144.85;100.00;61331.59;5018445;28;32559;-86
2023/04/22 07:44:10;;;;;;;17.55;12.90;;;;;;;-144.85;100.00;61331.59;5020345;28;32124;-82
2023/04/22 07:46:37;;;;;;;17.00;11.75;;;;;;;-144.85;100.00;61331.59;5002898;28;32511;-85
2023/04/22 07:49:04;;;;;;;14.65;11.93;;;;;;;-144.85;100.00;61331.59;5018185;28;32072;-82
2023/04/22 07:51:31;;;;;;;16.50;12.02;;;;;;;-144.85;100.00;61331.59;5019067;28;32656;-81
2023/04/22 07:53:58;;;;;;;16.58;12.50;;;;;;;-144.85;100.00;61331.59;5020587;28;32822;-84
2023/04/22 07:56:26;;;;;;;17.83;11.60;;;;;;;-144.85;100.00;61331.59;5017863;28;32374;-84
2023/04/22 07:58:53;;;;;;;16.33;11.95;;;;;;;-144.85;100.00;61331.59;5001393;28;30737;-84
2023/04/22 08:01:20;;;;;;;14.70;11.27;;;;;;;-144.85;100.00;61331.59;5017555;28;31087;-84
2023/04/22 08:03:47;;;;;;;16.02;11.43;;;;;;;-144.85;100.00;61331.59;5002167;28;32300;-84
2023/04/22 08:06:15;;;;;;;16.60;11.90;;;;;;;-144.85;100.00;61331.59;5018460;28;31871;-85
2023/04/22 08:08:43;;;;;;;14.95;11.20;;;;;;;-144.85;100.00;61331.59;5002536;28;30509;-83
2023/04/22 08:11:10;;;;;;;15.82;11.07;;;;;;;-144.85;100.00;61331.59;5017877;28;33243;-83
2023/04/22 08:13:37;;;;;;;14.30;10.77;;;;;;;-144.85;100.00;61331.59;5017733;28;33177;-83
2023/04/22 08:16:06;;;;;;;15.30;10.80;;;;;;;-144.85;100.00;61331.59;5017646;28;31961;-83
2023/04/22 08:18:34;;;;;;;15.25;10.82;;;;;;;-144.85;100.00;61331.59;5016459;28;33520;-83
2023/04/22 08:21:01;;;;;;;15.55;11.10;;;;;;;-144.85;100.00;61331.59;5017022;28;33152;-82
2023/04/22 08:23:28;;;;;;;18.05;12.30;;;;;;;-144.85;100.00;61331.59;4999061;28;32802;-82
2023/04/22 08:25:55;;;;;;;13.77;11.55;;;;;;;-144.85;100.00;61331.59;5002962;28;33547;-82
2023/04/22 08:28:23;;;;;;;14.68;11.40;;;;;;;-144.85;100.00;61331.59;5020124;28;31445;-83
2023/04/22 08:30:50;;;;;;;16.25;11.25;;;;;;;-144.85;100.00;61331.59;5019875;28;32162;-83
2023/04/22 08:33:17;;;;;;;15.75;10.90;;;;;;;-144.85;100.00;61331.59;5000299;28;33503;-83
2023/04/22 08:35:45;;;;;;;15.63;11.45;;;;;;;-144.85;100.00;61331.59;5019944;28;33139;-84
2023/04/22 08:38:12;;;;;;;14.68;11.55;;;;;;;-144.85;100.00;61331.59;5002732;28;31654;-83
2023/04/22 08:40:41;;;;;;;13.82;11.07;;;;;;;-144.85;100.00;61331.59;5002368;28;33974;-83
2023/04/22 08:43:08;;;;;;;14.20;11.02;;;;;;;-144.85;100.00;61331.59;5004043;28;33006;-81
2023/04/22 08:45:39;;;;;;;15.40;11.07;;;;;;;-144.85;100.00;61331.59;5002609;28;32381;-83
2023/04/22 08:48:08;;;;;;;16.88;10.38;;;;;;;-144.85;100.00;61331.59;5018360;28;30380;-83
2023/04/22 08:50:38;;;;;;;14.77;10.02;;;;;;;-144.85;100.00;61331.59;5017301;28;32602;-83
2023/04/22 08:53:06;;;;;;;11.88;9.48;;;;;;;-144.85;100.00;61331.59;5001130;28;32916;-83
2023/04/22 08:55:34;;;;;;;12.90;9.00;;;;;;;-144.85;100.00;61331.59;5017071;28;31904;-84
2023/04/22 08:58:04;;;;;;;14.32;9.82;;;;;;;-144.85;100.00;61331.59;5017764;28;31410;-83
2023/04/22 09:00:33;;;;;;;11.77;8.68;;;;;;;-144.85;100.00;61331.59;5015700;28;32233;-84
2023/04/22 09:03:04;;;;;;;13.00;9.32;;;;;;;-144.85;100.00;61331.59;5018131;28;32077;-84
2023/04/22 09:05:33;;;;;;;10.50;8.00;;;;;;;-144.85;100.00;61331.59;5000534;28;33096;-84
2023/04/22 09:08:02;;;;;;;11.40;8.63;;;;;;;-144.85;100.00;61331.59;5017739;28;32494;-82
2023/04/22 09:10:31;;;;;;;12.40;8.85;;;;;;;-144.85;100.00;61331.59;5018502;28;32162;-82
2023/04/22 09:13:03;;;;;;;11.73;8.00;;;;;;;-144.85;100.00;61331.59;5001006;28;31146;-82
2023/04/22 09:15:31;;;;;;;10.25;7.47;;;;;;;-144.85;100.00;61331.59;5017268;28;32420;-83
2023/04/22 09:17:58;;;;;;;9.98;7.07;;;;;;;-144.85;100.00;61331.59;5010346;28;32131;-83
2023/04/22 09:20:27;;;;;;;9.48;5.68;;;;;;;-144.85;100.00;61331.59;5025844;28;34062;-83
2023/04/22 09:22:56;;;;;;;7.88;5.20;;;;;;;-144.85;100.00;61331.59;5018423;28;32990;-83
2023/04/22 09:25:25;;;;;;;11.32;5.60;;;;;;;-144.85;100.00;61331.59;5019569;28;31390;-84
2023/04/22 09:27:54;;;;;;;11.90;8.25;;;;;;;-144.85;100.00;61331.59;5003477;28;32154;-83
2023/04/22 09:30:34;;;;;;;10.55;7.30;;;;;;;-144.85;100.00;61331.59;5004323;28;33046;-83
2023/04/22 09:33:03;;;;;;;10.60;7.10;;;;;;;-144.85;100.00;61331.59;5022987;28;31715;-82
2023/04/22 09:35:34;;;;;;;11.02;7.20;;;;;;;-144.85;100.00;61331.59;5019890;28;31599;-82
2023/04/22 09:38:03;;;;;;;9.30;6.68;;;;;;;-144.85;100.00;61331.59;5004853;28;32667;-83
2023/04/22 09:40:31;;;;;;;9.27;6.72;;;;;;;-144.85;100.00;61331.59;5013498;28;32980;-81
2023/04/22 09:43:02;;;;;;;9.05;6.05;;;;;;;-144.85;100.00;61331.59;5019241;28;32812;-82
2023/04/22 09:45:35;;;;;;;10.80;6.35;;;;;;;-144.85;100.00;61331.59;5017546;28;32883;-81
2023/04/22 09:48:13;;;;;;;9.65;6.10;;;;;;;-144.85;100.00;61331.59;5018972;28;31277;-81
2023/04/22 09:50:46;;;;;;;9.25;6.07;;;;;;;-144.85;100.00;61331.59;5017271;28;32244;-80
2023/04/22 09:53:19;;;;;;;8.52;6.05;;;;;;;-144.85;100.00;61331.59;5002647;28;33199;-82
2023/04/22 09:55:52;;;;;;;8.77;6.50;;;;;;;-144.85;100.00;61331.59;5003040;28;33430;-81
2023/04/22 09:58:26;;;;;;;7.20;6.20;;;;;;;-144.85;100.00;61331.59;5020238;28;32134;-81
2023/04/22 10:00:55;;;;;;;6.97;6.20;;;;;;;-144.85;100.00;61331.59;5027014;28;33298;-81
2023/04/22 10:03:23;;;;;;;8.82;6.07;;;;;;;-144.85;100.00;61331.59;5003892;28;33312;-82
2023/04/22 10:05:51;;;;;;;8.57;6.47;;;;;;;-144.85;100.00;61331.59;4999196;28;32245;-82
2023/04/22 10:08:18;;;;;;;11.65;5.80;;;;;;;-144.85;100.00;61331.59;5001481;28;30380;-81
2023/04/22 10:10:45;;;;;;;6.80;6.05;;;;;;;-144.85;100.00;61331.59;5014392;28;32238;-81
2023/04/22 10:13:13;;;;;;;7.32;5.13;;;;;;;-144.85;100.00;61331.59;5031363;28;32389;-81
2023/04/22 10:15:47;;;;;;;7.57;5.65;;;;;;;-144.85;100.00;61331.59;4998461;28;33123;-82
2023/04/22 10:18:20;;;;;;;6.28;5.15;;;;;;;-144.85;100.00;61331.59;5018014;28;32734;-82
2023/04/22 10:20:48;;;;;;;6.45;5.05;;;;;;;-144.85;100.00;61331.59;5021556;28;31197;-80
2023/04/22 10:23:21;;;;;;;7.90;4.93;;;;;;;-144.85;100.00;61331.59;5017774;28;32396;-81
2023/04/22 10:25:53;;;;;;;7.38;4.93;;;;;;;-144.85;100.00;61331.59;5016605;28;31542;-81
2023/04/22 10:28:22;;;;;;;7.30;5.10;;;;;;;-144.85;100.00;61331.59;5014817;28;32304;-81
2023/04/22 10:30:49;;;;;;;6.88;5.13;;;;;;;-144.85;100.00;61331.59;5000872;28;33213;-81
2023/04/22 10:33:20;;;;;;;5.35;4.70;;;;;;;-144.85;100.00;61331.59;5017968;28;32126;-81
2023/04/22 10:36:16;;;;;;;6.70;5.00;;;;;;;-144.85;100.00;61331.59;5018648;28;32111;-81
2023/04/22 10:38:53;;;;;;;8.43;5.35;;;;;;;-144.85;100.00;61331.59;5009488;28;31131;-81
2023/04/22 10:41:33;;;;;;;8.18;5.35;;;;;;;-144.85;100.00;61331.59;5019642;28;32530;-81
2023/04/22 10:44:05;;;;;;;8.35;5.20;;;;;;;-144.85;100.00;61331.59;5031972;28;30897;-81
2023/04/22 10:46:33;;;;;;;8.63;5.53;;;;;;;-144.85;100.00;61331.59;5021377;28;30709;-81
2023/04/22 10:49:19;;;;;;;8.48;5.45;;;;;;;-144.85;100.00;61331.59;5005068;28;32079;-81
2023/04/22 10:51:48;;;;;;;;;;;;;;;-144.85;100.00;61331.59;5021709;28;32126;-83
2023/04/22 10:54:27;;;;;;;6.65;5.13;;;;;;;-144.85;100.00;61331.59;5005832;28;31477;-82
2023/04/22 10:57:13;;;;;;;10.35;6.15;;;;;;;-144.85;100.00;61331.59;5018012;28;30885;-82
2023/04/22 10:59:45;;;;;;;6.88;5.38;;;;;;;-144.85;100.00;61331.59;5005954;28;31735;-82
2023/04/22 11:02:15;;;;;;;6.60;5.60;;;;;;;-144.85;100.00;61331.59;5020907;28;31980;-81
2023/04/22 11:04:43;;;;;;;6.68;5.20;;;;;;;-144.85;100.00;61331.59;5019893;28;32831;-82
2023/04/22 11:07:19;;;;;;;10.18;5.85;;;;;;;-144.85;100.00;61331.59;5006175;28;33190;-82
2023/04/22 11:09:52;;;;;;;11.05;5.72;;;;;;;-144.85;100.00;61331.59;5023060;28;30499;-81
2023/04/22 11:12:37;;;;;;;9.20;5.72;;;;;;;-144.85;100.00;61331.59;5021906;28;32684;-82